Huvudsida
METAR-TAF:

METAR-TAF

Flygplatser :

Chengdu Shuangliu International Airport

Chengdu, Kina

latitud: 30-40N, longitud: 104-01E, höjd: 508 m

Aktuellt väderrapport

Denna rapport gjordes för 43 minuter sedan, klockan 04:00 UTC
Vind 6 kt från nord/nordost, varierande mellan nord/nordväst och nordost
Temperatur 13°C
Fuktighet 88%
Tryck 1020 hPa
Sikt: 6000 m
Spridda moln på en höjd av 2000 ft
Brutna moln på en höjd av 4000 ft
lätt regn

METAR: ZUUU 150400Z 02003MPS 330V050 6000 -RA SCT020 BKN040 13/11 Q1020 NOSIG

Tid: 12:43 (04:43 UTC)

Väderprognos

Denna rapport gjordes för 8 timmar och 38 minuter sedan, klockan 20:05 UTC
Prognos gäller från 15 kl. 00 UTC till 15 kl. 24 UTC
Vind 8 kt från nord/nordost
Sikt: 5000 m
Spridda moln på en höjd av 4000 ft
lätt regn, fuktdis

TAF: ZUUU 142005Z 1500/1524 02004MPS 5000 -RA BR SCT040 TX13/1503Z TN11/1523Z

Aktuella väderrapporter och prognoser från 4000 flygplatser (METAR- och TAF-rapporter).

De tillgängliga stationerna syns som gula och röda prickar på kartan.

För musen över prickarna för att se namnen på stationerna.

Klicka sedan för att få väderrapporter och prognoser.

För att ändra kartan: Klicka på de gröna knapparna med ett svart kors på för att zooma in; den gröna knappen med ett streck på för att zooma ut; eller på de gröna pilarna för angränsande kartor.


METAR-TAF: